sensor_id;sensor_type;location;lat;lon;timestamp;P1;durP1;ratioP1;P2;durP2;ratioP2
19675;SDS011;39539;52.202;9.876;2023-08-24T00:00:19;4.20;;;3.88;;
19675;SDS011;39539;52.202;9.876;2023-08-24T00:02:45;5.68;;;3.42;;
19675;SDS011;39539;52.202;9.876;2023-08-24T00:05:11;4.40;;;3.25;;
19675;SDS011;39539;52.202;9.876;2023-08-24T00:07:38;3.47;;;3.28;;
19675;SDS011;39539;52.202;9.876;2023-08-24T00:10:03;4.13;;;3.83;;
19675;SDS011;39539;52.202;9.876;2023-08-24T00:12:32;4.22;;;3.83;;
19675;SDS011;39539;52.202;9.876;2023-08-24T00:14:58;3.47;;;3.28;;
19675;SDS011;39539;52.202;9.876;2023-08-24T00:17:24;3.90;;;3.60;;
19675;SDS011;39539;52.202;9.876;2023-08-24T00:19:49;4.15;;;3.85;;
19675;SDS011;39539;52.202;9.876;2023-08-24T00:22:15;4.35;;;3.95;;
19675;SDS011;39539;52.202;9.876;2023-08-24T00:24:40;4.20;;;3.85;;
19675;SDS011;39539;52.202;9.876;2023-08-24T00:27:05;3.80;;;3.53;;
19675;SDS011;39539;52.202;9.876;2023-08-24T00:29:31;4.07;;;3.80;;
19675;SDS011;39539;52.202;9.876;2023-08-24T00:31:56;4.30;;;3.90;;
19675;SDS011;39539;52.202;9.876;2023-08-24T00:34:22;4.53;;;4.22;;
19675;SDS011;39539;52.202;9.876;2023-08-24T00:36:49;4.80;;;4.32;;
19675;SDS011;39539;52.202;9.876;2023-08-24T00:39:14;5.47;;;4.88;;
19675;SDS011;39539;52.202;9.876;2023-08-24T00:41:41;5.38;;;4.32;;
19675;SDS011;39539;52.202;9.876;2023-08-24T00:44:06;4.95;;;4.65;;
19675;SDS011;39539;52.202;9.876;2023-08-24T00:46:37;5.53;;;5.00;;
19675;SDS011;39539;52.202;9.876;2023-08-24T00:49:02;5.65;;;5.25;;
19675;SDS011;39539;52.202;9.876;2023-08-24T00:51:28;5.18;;;4.85;;
19675;SDS011;39539;52.202;9.876;2023-08-24T00:53:53;5.05;;;4.65;;
19675;SDS011;39539;52.202;9.876;2023-08-24T00:56:19;6.15;;;5.65;;
19675;SDS011;39539;52.202;9.876;2023-08-24T00:58:49;6.18;;;5.68;;
19675;SDS011;39539;52.202;9.876;2023-08-24T01:01:16;7.03;;;6.43;;
19675;SDS011;39539;52.202;9.876;2023-08-24T01:03:42;7.30;;;6.80;;
19675;SDS011;39539;52.202;9.876;2023-08-24T01:06:08;6.95;;;6.55;;
19675;SDS011;39539;52.202;9.876;2023-08-24T01:08:34;6.95;;;6.45;;
19675;SDS011;39539;52.202;9.876;2023-08-24T01:16:39;7.03;;;6.55;;
19675;SDS011;39539;52.202;9.876;2023-08-24T01:19:10;8.10;;;7.40;;
19675;SDS011;39539;52.202;9.876;2023-08-24T01:21:58;7.57;;;7.07;;
19675;SDS011;39539;52.202;9.876;2023-08-24T01:24:30;7.72;;;7.07;;
19675;SDS011;39539;52.202;9.876;2023-08-24T01:27:01;7.05;;;6.65;;
19675;SDS011;39539;52.202;9.876;2023-08-24T01:29:29;7.22;;;6.72;;
19675;SDS011;39539;52.202;9.876;2023-08-24T01:31:55;7.35;;;6.95;;
19675;SDS011;39539;52.202;9.876;2023-08-24T01:34:20;7.28;;;6.78;;
19675;SDS011;39539;52.202;9.876;2023-08-24T01:36:45;8.02;;;7.45;;
19675;SDS011;39539;52.202;9.876;2023-08-24T01:39:12;7.63;;;7.22;;
19675;SDS011;39539;52.202;9.876;2023-08-24T01:41:46;7.93;;;7.43;;
19675;SDS011;39539;52.202;9.876;2023-08-24T01:44:18;8.00;;;7.50;;
19675;SDS011;39539;52.202;9.876;2023-08-24T01:46:46;7.45;;;6.95;;
19675;SDS011;39539;52.202;9.876;2023-08-24T01:49:15;7.78;;;7.25;;
19675;SDS011;39539;52.202;9.876;2023-08-24T01:51:43;9.50;;;7.60;;
19675;SDS011;39539;52.202;9.876;2023-08-24T01:54:10;8.00;;;7.50;;
19675;SDS011;39539;52.202;9.876;2023-08-24T01:56:35;8.20;;;7.65;;
19675;SDS011;39539;52.202;9.876;2023-08-24T01:59:01;8.13;;;7.63;;
19675;SDS011;39539;52.202;9.876;2023-08-24T02:01:26;8.40;;;7.82;;
19675;SDS011;39539;52.202;9.876;2023-08-24T02:03:51;8.38;;;7.57;;
19675;SDS011;39539;52.202;9.876;2023-08-24T02:06:17;7.50;;;7.10;;
19675;SDS011;39539;52.202;9.876;2023-08-24T02:08:42;7.80;;;7.38;;
19675;SDS011;39539;52.202;9.876;2023-08-24T02:11:09;7.60;;;7.10;;
19675;SDS011;39539;52.202;9.876;2023-08-24T02:13:35;7.82;;;7.32;;
19675;SDS011;39539;52.202;9.876;2023-08-24T02:16:07;8.10;;;7.50;;
19675;SDS011;39539;52.202;9.876;2023-08-24T02:18:37;8.13;;;7.53;;
19675;SDS011;39539;52.202;9.876;2023-08-24T02:21:09;7.80;;;7.40;;
19675;SDS011;39539;52.202;9.876;2023-08-24T02:23:36;8.32;;;7.88;;
19675;SDS011;39539;52.202;9.876;2023-08-24T02:26:02;8.20;;;7.70;;
19675;SDS011;39539;52.202;9.876;2023-08-24T02:28:28;11.15;;;8.07;;
19675;SDS011;39539;52.202;9.876;2023-08-24T02:30:53;8.60;;;8.10;;
19675;SDS011;39539;52.202;9.876;2023-08-24T02:33:19;8.82;;;8.20;;
19675;SDS011;39539;52.202;9.876;2023-08-24T02:35:46;9.60;;;8.73;;
19675;SDS011;39539;52.202;9.876;2023-08-24T02:38:12;9.65;;;8.88;;
19675;SDS011;39539;52.202;9.876;2023-08-24T02:40:40;8.77;;;8.27;;
19675;SDS011;39539;52.202;9.876;2023-08-24T02:43:06;9.20;;;8.45;;
19675;SDS011;39539;52.202;9.876;2023-08-24T02:45:31;8.85;;;8.23;;
19675;SDS011;39539;52.202;9.876;2023-08-24T02:47:57;8.85;;;8.25;;
19675;SDS011;39539;52.202;9.876;2023-08-24T02:50:22;8.35;;;7.75;;
19675;SDS011;39539;52.202;9.876;2023-08-24T02:52:47;8.93;;;8.43;;
19675;SDS011;39539;52.202;9.876;2023-08-24T02:55:13;9.02;;;8.52;;
19675;SDS011;39539;52.202;9.876;2023-08-24T02:57:39;8.98;;;8.38;;
19675;SDS011;39539;52.202;9.876;2023-08-24T03:00:04;9.75;;;9.25;;
19675;SDS011;39539;52.202;9.876;2023-08-24T03:02:31;9.48;;;8.88;;
19675;SDS011;39539;52.202;9.876;2023-08-24T03:04:57;9.32;;;8.80;;
19675;SDS011;39539;52.202;9.876;2023-08-24T03:07:22;9.25;;;8.57;;
19675;SDS011;39539;52.202;9.876;2023-08-24T03:09:48;9.20;;;8.60;;
19675;SDS011;39539;52.202;9.876;2023-08-24T03:12:14;9.93;;;9.32;;
19675;SDS011;39539;52.202;9.876;2023-08-24T03:14:39;10.05;;;9.35;;
19675;SDS011;39539;52.202;9.876;2023-08-24T03:17:04;9.85;;;9.15;;
19675;SDS011;39539;52.202;9.876;2023-08-24T03:19:30;9.95;;;9.25;;
19675;SDS011;39539;52.202;9.876;2023-08-24T03:21:55;9.48;;;8.98;;
19675;SDS011;39539;52.202;9.876;2023-08-24T03:24:20;9.40;;;8.80;;
19675;SDS011;39539;52.202;9.876;2023-08-24T03:26:46;8.55;;;8.05;;
19675;SDS011;39539;52.202;9.876;2023-08-24T03:29:11;8.95;;;8.35;;
19675;SDS011;39539;52.202;9.876;2023-08-24T03:31:36;9.23;;;8.63;;
19675;SDS011;39539;52.202;9.876;2023-08-24T03:34:02;8.55;;;8.05;;
19675;SDS011;39539;52.202;9.876;2023-08-24T03:36:29;9.57;;;8.88;;
19675;SDS011;39539;52.202;9.876;2023-08-24T03:38:54;10.27;;;9.48;;
19675;SDS011;39539;52.202;9.876;2023-08-24T03:41:19;9.40;;;8.90;;
19675;SDS011;39539;52.202;9.876;2023-08-24T03:43:45;8.88;;;8.38;;
19675;SDS011;39539;52.202;9.876;2023-08-24T03:46:10;10.67;;;10.07;;
19675;SDS011;39539;52.202;9.876;2023-08-24T03:48:35;9.95;;;9.35;;
19675;SDS011;39539;52.202;9.876;2023-08-24T03:51:01;9.65;;;9.15;;
19675;SDS011;39539;52.202;9.876;2023-08-24T03:53:26;10.90;;;10.20;;
19675;SDS011;39539;52.202;9.876;2023-08-24T03:55:52;9.75;;;9.15;;
19675;SDS011;39539;52.202;9.876;2023-08-24T03:58:18;10.88;;;10.18;;
19675;SDS011;39539;52.202;9.876;2023-08-24T04:00:46;11.05;;;10.15;;
19675;SDS011;39539;52.202;9.876;2023-08-24T04:03:12;10.25;;;9.70;;
19675;SDS011;39539;52.202;9.876;2023-08-24T04:05:38;11.20;;;10.55;;
19675;SDS011;39539;52.202;9.876;2023-08-24T04:08:03;10.73;;;10.13;;
19675;SDS011;39539;52.202;9.876;2023-08-24T04:10:29;12.65;;;11.70;;
19675;SDS011;39539;52.202;9.876;2023-08-24T04:12:55;11.25;;;10.60;;
19675;SDS011;39539;52.202;9.876;2023-08-24T04:15:20;11.13;;;10.45;;
19675;SDS011;39539;52.202;9.876;2023-08-24T04:17:47;11.52;;;10.57;;
19675;SDS011;39539;52.202;9.876;2023-08-24T04:20:13;11.27;;;10.68;;
19675;SDS011;39539;52.202;9.876;2023-08-24T04:22:38;12.15;;;11.27;;
19675;SDS011;39539;52.202;9.876;2023-08-24T04:25:03;11.77;;;11.07;;
19675;SDS011;39539;52.202;9.876;2023-08-24T04:27:29;12.77;;;11.85;;
19675;SDS011;39539;52.202;9.876;2023-08-24T04:29:55;12.10;;;11.20;;
19675;SDS011;39539;52.202;9.876;2023-08-24T04:32:21;12.48;;;11.70;;
19675;SDS011;39539;52.202;9.876;2023-08-24T04:34:47;12.88;;;12.18;;
19675;SDS011;39539;52.202;9.876;2023-08-24T04:37:12;13.73;;;12.82;;
19675;SDS011;39539;52.202;9.876;2023-08-24T04:39:38;12.77;;;12.07;;
19675;SDS011;39539;52.202;9.876;2023-08-24T04:42:03;13.43;;;12.68;;
19675;SDS011;39539;52.202;9.876;2023-08-24T04:44:28;12.75;;;11.90;;
19675;SDS011;39539;52.202;9.876;2023-08-24T04:46:54;11.85;;;11.10;;
19675;SDS011;39539;52.202;9.876;2023-08-24T04:49:19;12.27;;;11.57;;
19675;SDS011;39539;52.202;9.876;2023-08-24T04:51:45;13.10;;;12.27;;
19675;SDS011;39539;52.202;9.876;2023-08-24T04:54:10;12.23;;;11.52;;
19675;SDS011;39539;52.202;9.876;2023-08-24T04:56:36;12.25;;;11.45;;
19675;SDS011;39539;52.202;9.876;2023-08-24T04:59:02;13.23;;;12.40;;
19675;SDS011;39539;52.202;9.876;2023-08-24T05:01:27;12.57;;;11.82;;
19675;SDS011;39539;52.202;9.876;2023-08-24T05:03:55;12.65;;;11.77;;
19675;SDS011;39539;52.202;9.876;2023-08-24T05:06:20;11.80;;;11.10;;
19675;SDS011;39539;52.202;9.876;2023-08-24T05:08:46;11.75;;;11.15;;
19675;SDS011;39539;52.202;9.876;2023-08-24T05:11:18;11.73;;;11.13;;
19675;SDS011;39539;52.202;9.876;2023-08-24T05:13:44;12.35;;;11.38;;
19675;SDS011;39539;52.202;9.876;2023-08-24T05:16:10;12.02;;;11.40;;
19675;SDS011;39539;52.202;9.876;2023-08-24T05:18:36;11.85;;;11.05;;
19675;SDS011;39539;52.202;9.876;2023-08-24T05:21:05;11.27;;;10.68;;
19675;SDS011;39539;52.202;9.876;2023-08-24T05:23:31;11.35;;;10.55;;
19675;SDS011;39539;52.202;9.876;2023-08-24T05:25:59;11.05;;;10.35;;
19675;SDS011;39539;52.202;9.876;2023-08-24T05:28:25;11.20;;;10.60;;
19675;SDS011;39539;52.202;9.876;2023-08-24T05:30:51;11.30;;;10.63;;
19675;SDS011;39539;52.202;9.876;2023-08-24T05:33:17;11.52;;;10.90;;
19675;SDS011;39539;52.202;9.876;2023-08-24T05:35:43;11.35;;;10.75;;
19675;SDS011;39539;52.202;9.876;2023-08-24T05:38:08;12.23;;;11.48;;
19675;SDS011;39539;52.202;9.876;2023-08-24T05:40:34;11.82;;;11.07;;
19675;SDS011;39539;52.202;9.876;2023-08-24T05:43:00;11.80;;;11.02;;
19675;SDS011;39539;52.202;9.876;2023-08-24T05:45:26;11.63;;;10.82;;
19675;SDS011;39539;52.202;9.876;2023-08-24T05:47:52;9.90;;;9.40;;
19675;SDS011;39539;52.202;9.876;2023-08-24T05:50:17;10.55;;;9.70;;
19675;SDS011;39539;52.202;9.876;2023-08-24T05:52:42;9.52;;;8.85;;
19675;SDS011;39539;52.202;9.876;2023-08-24T05:55:08;9.57;;;9.02;;
19675;SDS011;39539;52.202;9.876;2023-08-24T05:57:33;9.80;;;9.20;;
19675;SDS011;39539;52.202;9.876;2023-08-24T06:00:00;9.63;;;9.13;;
19675;SDS011;39539;52.202;9.876;2023-08-24T06:02:27;10.50;;;9.90;;
19675;SDS011;39539;52.202;9.876;2023-08-24T06:04:52;10.70;;;10.10;;
19675;SDS011;39539;52.202;9.876;2023-08-24T06:07:18;10.90;;;10.25;;
19675;SDS011;39539;52.202;9.876;2023-08-24T06:09:44;11.10;;;10.32;;
19675;SDS011;39539;52.202;9.876;2023-08-24T06:12:10;10.85;;;10.20;;
19675;SDS011;39539;52.202;9.876;2023-08-24T06:14:35;10.63;;;10.02;;
19675;SDS011;39539;52.202;9.876;2023-08-24T06:17:01;11.25;;;10.48;;
19675;SDS011;39539;52.202;9.876;2023-08-24T06:19:26;10.82;;;10.13;;
19675;SDS011;39539;52.202;9.876;2023-08-24T06:21:51;11.00;;;10.40;;
19675;SDS011;39539;52.202;9.876;2023-08-24T06:24:17;10.95;;;10.18;;
19675;SDS011;39539;52.202;9.876;2023-08-24T06:26:42;10.95;;;10.35;;
19675;SDS011;39539;52.202;9.876;2023-08-24T06:29:08;11.82;;;11.02;;
19675;SDS011;39539;52.202;9.876;2023-08-24T06:31:33;11.43;;;10.77;;
19675;SDS011;39539;52.202;9.876;2023-08-24T06:33:58;12.30;;;11.40;;
19675;SDS011;39539;52.202;9.876;2023-08-24T06:36:24;11.77;;;10.95;;
19675;SDS011;39539;52.202;9.876;2023-08-24T06:38:49;12.40;;;11.45;;
19675;SDS011;39539;52.202;9.876;2023-08-24T06:41:15;11.95;;;10.88;;
19675;SDS011;39539;52.202;9.876;2023-08-24T06:43:40;12.30;;;11.40;;
19675;SDS011;39539;52.202;9.876;2023-08-24T06:46:06;11.15;;;10.38;;
19675;SDS011;39539;52.202;9.876;2023-08-24T06:48:35;11.57;;;10.70;;
19675;SDS011;39539;52.202;9.876;2023-08-24T06:51:02;11.73;;;10.82;;
19675;SDS011;39539;52.202;9.876;2023-08-24T06:53:28;11.20;;;10.48;;
19675;SDS011;39539;52.202;9.876;2023-08-24T06:55:55;10.60;;;10.00;;
19675;SDS011;39539;52.202;9.876;2023-08-24T06:58:20;10.60;;;9.63;;
19675;SDS011;39539;52.202;9.876;2023-08-24T07:00:46;11.02;;;10.23;;
19675;SDS011;39539;52.202;9.876;2023-08-24T07:03:11;11.50;;;10.70;;
19675;SDS011;39539;52.202;9.876;2023-08-24T07:05:37;11.60;;;10.55;;
19675;SDS011;39539;52.202;9.876;2023-08-24T07:08:02;11.20;;;10.32;;
19675;SDS011;39539;52.202;9.876;2023-08-24T07:10:28;11.75;;;10.82;;
19675;SDS011;39539;52.202;9.876;2023-08-24T07:12:54;10.38;;;9.60;;
19675;SDS011;39539;52.202;9.876;2023-08-24T07:15:19;10.70;;;10.00;;
19675;SDS011;39539;52.202;9.876;2023-08-24T07:17:45;10.23;;;9.57;;
19675;SDS011;39539;52.202;9.876;2023-08-24T07:20:10;9.85;;;9.15;;
19675;SDS011;39539;52.202;9.876;2023-08-24T07:22:39;9.93;;;9.32;;
19675;SDS011;39539;52.202;9.876;2023-08-24T07:25:05;8.88;;;8.07;;
19675;SDS011;39539;52.202;9.876;2023-08-24T07:27:32;7.35;;;6.85;;
19675;SDS011;39539;52.202;9.876;2023-08-24T07:29:58;6.78;;;6.25;;
19675;SDS011;39539;52.202;9.876;2023-08-24T07:32:25;6.88;;;6.38;;
19675;SDS011;39539;52.202;9.876;2023-08-24T07:34:51;6.60;;;6.10;;
19675;SDS011;39539;52.202;9.876;2023-08-24T07:37:17;6.32;;;5.75;;
19675;SDS011;39539;52.202;9.876;2023-08-24T07:39:42;6.53;;;6.07;;
19675;SDS011;39539;52.202;9.876;2023-08-24T07:42:08;6.03;;;5.55;;
19675;SDS011;39539;52.202;9.876;2023-08-24T07:44:33;5.32;;;5.03;;
19675;SDS011;39539;52.202;9.876;2023-08-24T07:46:58;5.25;;;4.95;;
19675;SDS011;39539;52.202;9.876;2023-08-24T07:49:24;5.78;;;5.30;;
19675;SDS011;39539;52.202;9.876;2023-08-24T07:51:49;6.07;;;5.57;;
19675;SDS011;39539;52.202;9.876;2023-08-24T07:54:15;5.88;;;5.32;;
19675;SDS011;39539;52.202;9.876;2023-08-24T07:56:40;5.53;;;5.10;;
19675;SDS011;39539;52.202;9.876;2023-08-24T07:59:06;7.40;;;4.95;;
19675;SDS011;39539;52.202;9.876;2023-08-24T08:01:32;5.65;;;4.80;;
19675;SDS011;39539;52.202;9.876;2023-08-24T08:03:57;5.15;;;4.70;;
19675;SDS011;39539;52.202;9.876;2023-08-24T08:06:23;6.00;;;5.50;;
19675;SDS011;39539;52.202;9.876;2023-08-24T08:08:50;8.80;;;5.90;;
19675;SDS011;39539;52.202;9.876;2023-08-24T08:11:16;5.60;;;5.13;;
19675;SDS011;39539;52.202;9.876;2023-08-24T08:13:42;5.85;;;5.35;;
19675;SDS011;39539;52.202;9.876;2023-08-24T08:16:08;5.60;;;5.20;;
19675;SDS011;39539;52.202;9.876;2023-08-24T08:18:35;5.65;;;5.22;;
19675;SDS011;39539;52.202;9.876;2023-08-24T08:21:03;5.20;;;4.80;;
19675;SDS011;39539;52.202;9.876;2023-08-24T08:23:34;11.40;;;4.95;;
19675;SDS011;39539;52.202;9.876;2023-08-24T08:25:59;5.30;;;4.30;;
19675;SDS011;39539;52.202;9.876;2023-08-24T08:28:26;4.45;;;4.05;;
19675;SDS011;39539;52.202;9.876;2023-08-24T08:30:51;4.95;;;3.80;;
19675;SDS011;39539;52.202;9.876;2023-08-24T08:33:17;7.88;;;3.78;;
19675;SDS011;39539;52.202;9.876;2023-08-24T08:35:43;3.90;;;3.60;;
19675;SDS011;39539;52.202;9.876;2023-08-24T08:38:09;5.80;;;3.63;;
19675;SDS011;39539;52.202;9.876;2023-08-24T08:40:36;3.30;;;3.00;;
19675;SDS011;39539;52.202;9.876;2023-08-24T08:43:02;3.55;;;2.78;;
19675;SDS011;39539;52.202;9.876;2023-08-24T08:45:28;3.67;;;3.10;;
19675;SDS011;39539;52.202;9.876;2023-08-24T08:48:00;3.53;;;3.20;;
19675;SDS011;39539;52.202;9.876;2023-08-24T08:50:28;3.20;;;3.00;;
19675;SDS011;39539;52.202;9.876;2023-08-24T08:52:57;3.83;;;3.40;;
19675;SDS011;39539;52.202;9.876;2023-08-24T08:55:26;4.97;;;3.08;;
19675;SDS011;39539;52.202;9.876;2023-08-24T08:57:56;4.45;;;2.80;;
19675;SDS011;39539;52.202;9.876;2023-08-24T09:00:24;3.00;;;2.80;;
19675;SDS011;39539;52.202;9.876;2023-08-24T09:02:49;3.03;;;2.60;;
19675;SDS011;39539;52.202;9.876;2023-08-24T09:05:18;4.75;;;2.90;;
19675;SDS011;39539;52.202;9.876;2023-08-24T09:07:45;3.65;;;3.25;;
19675;SDS011;39539;52.202;9.876;2023-08-24T09:10:12;6.30;;;3.20;;
19675;SDS011;39539;52.202;9.876;2023-08-24T09:12:37;3.00;;;2.70;;
19675;SDS011;39539;52.202;9.876;2023-08-24T09:15:03;2.88;;;2.60;;
19675;SDS011;39539;52.202;9.876;2023-08-24T09:17:31;3.70;;;3.05;;
19675;SDS011;39539;52.202;9.876;2023-08-24T09:20:00;2.40;;;2.20;;
19675;SDS011;39539;52.202;9.876;2023-08-24T09:22:35;2.97;;;2.30;;
19675;SDS011;39539;52.202;9.876;2023-08-24T09:25:01;4.70;;;2.42;;
19675;SDS011;39539;52.202;9.876;2023-08-24T09:27:29;3.17;;;2.63;;
19675;SDS011;39539;52.202;9.876;2023-08-24T09:29:54;3.10;;;2.60;;
19675;SDS011;39539;52.202;9.876;2023-08-24T09:32:37;4.20;;;2.80;;
19675;SDS011;39539;52.202;9.876;2023-08-24T09:35:03;3.08;;;2.88;;
19675;SDS011;39539;52.202;9.876;2023-08-24T09:37:33;2.85;;;2.35;;
19675;SDS011;39539;52.202;9.876;2023-08-24T09:40:01;4.05;;;2.60;;
19675;SDS011;39539;52.202;9.876;2023-08-24T09:42:33;2.85;;;2.58;;
19675;SDS011;39539;52.202;9.876;2023-08-24T09:45:03;3.47;;;2.28;;
19675;SDS011;39539;52.202;9.876;2023-08-24T09:47:29;3.97;;;3.05;;
19675;SDS011;39539;52.202;9.876;2023-08-24T09:49:55;5.07;;;2.90;;
19675;SDS011;39539;52.202;9.876;2023-08-24T09:52:20;2.90;;;2.60;;
19675;SDS011;39539;52.202;9.876;2023-08-24T09:54:48;2.58;;;2.38;;
19675;SDS011;39539;52.202;9.876;2023-08-24T09:57:18;4.13;;;2.83;;
19675;SDS011;39539;52.202;9.876;2023-08-24T09:59:44;6.75;;;3.10;;
19675;SDS011;39539;52.202;9.876;2023-08-24T10:02:17;2.67;;;2.42;;
19675;SDS011;39539;52.202;9.876;2023-08-24T10:04:46;2.88;;;2.40;;
19675;SDS011;39539;52.202;9.876;2023-08-24T10:07:15;3.00;;;2.70;;
19675;SDS011;39539;52.202;9.876;2023-08-24T10:09:53;3.17;;;2.53;;
19675;SDS011;39539;52.202;9.876;2023-08-24T10:12:23;4.75;;;2.97;;
19675;SDS011;39539;52.202;9.876;2023-08-24T10:14:53;3.33;;;2.83;;
19675;SDS011;39539;52.202;9.876;2023-08-24T10:17:25;4.32;;;2.55;;
19675;SDS011;39539;52.202;9.876;2023-08-24T10:19:51;3.63;;;2.78;;
19675;SDS011;39539;52.202;9.876;2023-08-24T10:22:19;3.90;;;2.40;;
19675;SDS011;39539;52.202;9.876;2023-08-24T10:24:45;2.97;;;2.50;;
19675;SDS011;39539;52.202;9.876;2023-08-24T10:27:14;4.05;;;2.78;;
19675;SDS011;39539;52.202;9.876;2023-08-24T10:29:40;2.92;;;2.63;;
19675;SDS011;39539;52.202;9.876;2023-08-24T10:32:05;2.83;;;2.50;;
19675;SDS011;39539;52.202;9.876;2023-08-24T10:34:33;4.22;;;3.60;;
19675;SDS011;39539;52.202;9.876;2023-08-24T10:37:10;3.35;;;3.03;;
19675;SDS011;39539;52.202;9.876;2023-08-24T10:39:46;4.53;;;3.80;;
19675;SDS011;39539;52.202;9.876;2023-08-24T10:42:12;4.93;;;3.80;;
19675;SDS011;39539;52.202;9.876;2023-08-24T10:44:44;3.33;;;3.13;;
19675;SDS011;39539;52.202;9.876;2023-08-24T10:47:11;3.40;;;3.10;;
19675;SDS011;39539;52.202;9.876;2023-08-24T10:49:42;3.45;;;3.17;;
19675;SDS011;39539;52.202;9.876;2023-08-24T10:52:18;3.88;;;3.50;;
19675;SDS011;39539;52.202;9.876;2023-08-24T10:54:54;5.75;;;3.58;;
19675;SDS011;39539;52.202;9.876;2023-08-24T11:00:08;3.53;;;3.08;;
19675;SDS011;39539;52.202;9.876;2023-08-24T11:10:22;5.40;;;3.47;;
19675;SDS011;39539;52.202;9.876;2023-08-24T11:15:36;3.30;;;3.00;;
19675;SDS011;39539;52.202;9.876;2023-08-24T11:18:23;3.50;;;3.30;;
19675;SDS011;39539;52.202;9.876;2023-08-24T11:23:25;4.40;;;3.10;;
19675;SDS011;39539;52.202;9.876;2023-08-24T11:25:51;3.67;;;3.33;;
19675;SDS011;39539;52.202;9.876;2023-08-24T11:28:21;3.45;;;3.15;;
19675;SDS011;39539;52.202;9.876;2023-08-24T11:30:49;3.20;;;2.88;;
19675;SDS011;39539;52.202;9.876;2023-08-24T11:33:16;3.08;;;2.83;;
19675;SDS011;39539;52.202;9.876;2023-08-24T11:35:45;3.78;;;2.65;;
19675;SDS011;39539;52.202;9.876;2023-08-24T11:38:12;2.75;;;2.55;;
19675;SDS011;39539;52.202;9.876;2023-08-24T11:40:38;4.22;;;2.75;;
19675;SDS011;39539;52.202;9.876;2023-08-24T11:43:04;3.60;;;3.10;;
19675;SDS011;39539;52.202;9.876;2023-08-24T11:45:31;3.45;;;3.08;;
19675;SDS011;39539;52.202;9.876;2023-08-24T11:48:01;3.17;;;2.72;;
19675;SDS011;39539;52.202;9.876;2023-08-24T11:50:27;3.10;;;2.90;;
19675;SDS011;39539;52.202;9.876;2023-08-24T11:52:54;3.30;;;2.85;;
19675;SDS011;39539;52.202;9.876;2023-08-24T11:55:22;2.67;;;2.47;;
19675;SDS011;39539;52.202;9.876;2023-08-24T11:57:50;3.70;;;2.50;;
19675;SDS011;39539;52.202;9.876;2023-08-24T12:00:18;2.78;;;2.58;;
19675;SDS011;39539;52.202;9.876;2023-08-24T12:02:46;2.92;;;2.72;;
19675;SDS011;39539;52.202;9.876;2023-08-24T12:05:25;3.92;;;2.72;;
19675;SDS011;39539;52.202;9.876;2023-08-24T12:07:52;3.40;;;2.88;;
19675;SDS011;39539;52.202;9.876;2023-08-24T12:10:19;3.17;;;2.70;;
19675;SDS011;39539;52.202;9.876;2023-08-24T12:12:44;3.03;;;2.72;;
19675;SDS011;39539;52.202;9.876;2023-08-24T12:15:19;3.95;;;2.42;;
19675;SDS011;39539;52.202;9.876;2023-08-24T12:17:46;2.65;;;2.45;;
19675;SDS011;39539;52.202;9.876;2023-08-24T12:20:19;3.47;;;2.63;;
19675;SDS011;39539;52.202;9.876;2023-08-24T12:22:50;3.67;;;2.85;;
19675;SDS011;39539;52.202;9.876;2023-08-24T12:25:22;3.00;;;2.80;;
19675;SDS011;39539;52.202;9.876;2023-08-24T12:27:49;4.97;;;3.38;;
19675;SDS011;39539;52.202;9.876;2023-08-24T12:30:19;3.58;;;2.80;;
19675;SDS011;39539;52.202;9.876;2023-08-24T12:32:48;3.35;;;2.60;;
19675;SDS011;39539;52.202;9.876;2023-08-24T12:35:16;5.13;;;3.10;;
19675;SDS011;39539;52.202;9.876;2023-08-24T12:37:42;4.22;;;3.17;;
19675;SDS011;39539;52.202;9.876;2023-08-24T12:40:08;3.42;;;2.50;;
19675;SDS011;39539;52.202;9.876;2023-08-24T12:42:33;3.38;;;2.92;;
19675;SDS011;39539;52.202;9.876;2023-08-24T12:45:00;2.60;;;2.40;;
19675;SDS011;39539;52.202;9.876;2023-08-24T12:47:26;3.00;;;2.30;;
19675;SDS011;39539;52.202;9.876;2023-08-24T12:49:53;4.95;;;3.42;;
19675;SDS011;39539;52.202;9.876;2023-08-24T12:52:23;3.95;;;2.47;;
19675;SDS011;39539;52.202;9.876;2023-08-24T12:54:49;2.33;;;2.10;;
19675;SDS011;39539;52.202;9.876;2023-08-24T12:57:15;2.60;;;2.40;;
19675;SDS011;39539;52.202;9.876;2023-08-24T12:59:42;3.28;;;2.22;;
19675;SDS011;39539;52.202;9.876;2023-08-24T13:02:07;2.35;;;2.00;;
19675;SDS011;39539;52.202;9.876;2023-08-24T13:04:33;2.30;;;2.03;;
19675;SDS011;39539;52.202;9.876;2023-08-24T13:07:00;2.50;;;2.30;;
19675;SDS011;39539;52.202;9.876;2023-08-24T13:09:25;1.90;;;1.80;;
19675;SDS011;39539;52.202;9.876;2023-08-24T13:11:51;2.40;;;2.10;;
19675;SDS011;39539;52.202;9.876;2023-08-24T13:14:16;3.97;;;2.33;;
19675;SDS011;39539;52.202;9.876;2023-08-24T13:16:42;2.67;;;2.00;;
19675;SDS011;39539;52.202;9.876;2023-08-24T13:19:09;2.50;;;2.30;;
19675;SDS011;39539;52.202;9.876;2023-08-24T13:21:34;2.20;;;2.10;;
19675;SDS011;39539;52.202;9.876;2023-08-24T13:24:01;2.75;;;2.38;;
19675;SDS011;39539;52.202;9.876;2023-08-24T13:26:26;4.32;;;2.83;;
19675;SDS011;39539;52.202;9.876;2023-08-24T13:28:55;4.50;;;2.25;;
19675;SDS011;39539;52.202;9.876;2023-08-24T13:31:21;2.90;;;2.38;;
19675;SDS011;39539;52.202;9.876;2023-08-24T13:33:48;2.38;;;2.17;;
19675;SDS011;39539;52.202;9.876;2023-08-24T13:36:18;2.92;;;2.38;;
19675;SDS011;39539;52.202;9.876;2023-08-24T13:38:44;2.80;;;2.60;;
19675;SDS011;39539;52.202;9.876;2023-08-24T13:41:14;2.50;;;2.30;;
19675;SDS011;39539;52.202;9.876;2023-08-24T13:43:41;5.05;;;2.40;;
19675;SDS011;39539;52.202;9.876;2023-08-24T13:46:07;2.78;;;2.47;;
19675;SDS011;39539;52.202;9.876;2023-08-24T13:48:32;3.72;;;2.67;;
19675;SDS011;39539;52.202;9.876;2023-08-24T13:51:01;2.47;;;2.20;;
19675;SDS011;39539;52.202;9.876;2023-08-24T13:53:27;2.95;;;2.20;;
19675;SDS011;39539;52.202;9.876;2023-08-24T13:55:53;2.80;;;2.53;;
19675;SDS011;39539;52.202;9.876;2023-08-24T13:58:18;2.35;;;2.22;;
19675;SDS011;39539;52.202;9.876;2023-08-24T14:00:44;2.40;;;2.20;;
19675;SDS011;39539;52.202;9.876;2023-08-24T14:03:09;2.60;;;2.40;;
19675;SDS011;39539;52.202;9.876;2023-08-24T14:05:38;2.50;;;2.25;;
19675;SDS011;39539;52.202;9.876;2023-08-24T14:08:04;2.95;;;2.45;;
19675;SDS011;39539;52.202;9.876;2023-08-24T14:10:30;3.28;;;2.60;;
19675;SDS011;39539;52.202;9.876;2023-08-24T14:12:56;2.67;;;2.47;;
19675;SDS011;39539;52.202;9.876;2023-08-24T14:15:22;2.45;;;2.25;;
19675;SDS011;39539;52.202;9.876;2023-08-24T14:17:47;2.97;;;2.28;;
19675;SDS011;39539;52.202;9.876;2023-08-24T14:20:12;2.85;;;2.33;;
19675;SDS011;39539;52.202;9.876;2023-08-24T14:22:42;3.05;;;2.40;;
19675;SDS011;39539;52.202;9.876;2023-08-24T14:25:20;3.05;;;2.63;;
19675;SDS011;39539;52.202;9.876;2023-08-24T14:27:45;3.38;;;2.25;;
19675;SDS011;39539;52.202;9.876;2023-08-24T14:30:11;3.33;;;2.28;;
19675;SDS011;39539;52.202;9.876;2023-08-24T14:32:43;2.92;;;2.60;;
19675;SDS011;39539;52.202;9.876;2023-08-24T14:35:10;2.38;;;2.28;;
19675;SDS011;39539;52.202;9.876;2023-08-24T14:37:36;2.45;;;2.22;;
19675;SDS011;39539;52.202;9.876;2023-08-24T14:40:04;2.60;;;2.00;;
19675;SDS011;39539;52.202;9.876;2023-08-24T14:42:32;2.00;;;1.90;;
19675;SDS011;39539;52.202;9.876;2023-08-24T14:44:58;2.42;;;2.17;;
19675;SDS011;39539;52.202;9.876;2023-08-24T14:47:24;2.60;;;2.30;;
19675;SDS011;39539;52.202;9.876;2023-08-24T14:49:49;2.30;;;2.10;;
19675;SDS011;39539;52.202;9.876;2023-08-24T14:52:21;3.40;;;2.25;;
19675;SDS011;39539;52.202;9.876;2023-08-24T14:54:51;2.13;;;1.92;;
19675;SDS011;39539;52.202;9.876;2023-08-24T14:57:17;2.17;;;1.90;;
19675;SDS011;39539;52.202;9.876;2023-08-24T14:59:42;2.92;;;2.03;;